sensor_id;sensor_type;location;lat;lon;timestamp;pressure;altitude;pressure_sealevel;temperature;humidity
72560;BME280;62987;52.382;9.752;2023-09-12T00:00:02;100524.22;;;21.69;100.00
72560;BME280;62987;52.382;9.752;2023-09-12T00:02:39;100522.81;;;21.65;100.00
72560;BME280;62987;52.382;9.752;2023-09-12T00:05:07;100503.09;;;21.53;100.00
72560;BME280;62987;52.382;9.752;2023-09-12T00:07:39;100518.34;;;21.54;100.00
72560;BME280;62987;52.382;9.752;2023-09-12T00:10:09;100536.84;;;21.49;100.00
72560;BME280;62987;52.382;9.752;2023-09-12T00:12:38;100545.41;;;21.44;100.00
72560;BME280;62987;52.382;9.752;2023-09-12T00:15:07;100566.88;;;21.46;100.00
72560;BME280;62987;52.382;9.752;2023-09-12T00:17:35;100567.19;;;21.43;100.00
72560;BME280;62987;52.382;9.752;2023-09-12T00:20:08;100561.47;;;21.46;100.00
72560;BME280;62987;52.382;9.752;2023-09-12T00:22:36;100528.44;;;21.42;100.00
72560;BME280;62987;52.382;9.752;2023-09-12T00:25:05;100523.56;;;21.36;100.00
72560;BME280;62987;52.382;9.752;2023-09-12T00:27:34;100528.13;;;21.36;100.00
72560;BME280;62987;52.382;9.752;2023-09-12T00:30:04;100503.16;;;21.23;100.00
72560;BME280;62987;52.382;9.752;2023-09-12T00:32:33;100506.13;;;21.20;100.00
72560;BME280;62987;52.382;9.752;2023-09-12T00:35:01;100506.72;;;21.23;100.00
72560;BME280;62987;52.382;9.752;2023-09-12T00:37:31;100496.03;;;21.22;100.00
72560;BME280;62987;52.382;9.752;2023-09-12T00:39:59;100478.47;;;21.06;100.00
72560;BME280;62987;52.382;9.752;2023-09-12T00:42:29;100499.28;;;21.16;100.00
72560;BME280;62987;52.382;9.752;2023-09-12T00:44:57;100485.72;;;21.06;100.00
72560;BME280;62987;52.382;9.752;2023-09-12T00:47:27;100465.75;;;20.97;100.00
72560;BME280;62987;52.382;9.752;2023-09-12T00:49:56;100479.56;;;21.04;100.00
72560;BME280;62987;52.382;9.752;2023-09-12T00:52:26;100482.84;;;20.98;100.00
72560;BME280;62987;52.382;9.752;2023-09-12T00:54:57;100482.41;;;20.93;100.00
72560;BME280;62987;52.382;9.752;2023-09-12T00:57:26;100483.75;;;20.87;100.00
72560;BME280;62987;52.382;9.752;2023-09-12T00:59:54;100484.78;;;20.86;100.00
72560;BME280;62987;52.382;9.752;2023-09-12T01:02:24;100478.66;;;20.84;100.00
72560;BME280;62987;52.382;9.752;2023-09-12T01:04:57;100473.78;;;20.78;100.00
72560;BME280;62987;52.382;9.752;2023-09-12T01:07:26;100480.59;;;20.72;100.00
72560;BME280;62987;52.382;9.752;2023-09-12T01:09:54;100455.50;;;20.61;100.00
72560;BME280;62987;52.382;9.752;2023-09-12T01:12:24;100472.41;;;20.63;100.00
72560;BME280;62987;52.382;9.752;2023-09-12T01:14:53;100479.09;;;20.59;100.00
72560;BME280;62987;52.382;9.752;2023-09-12T01:17:21;100463.53;;;20.51;100.00
72560;BME280;62987;52.382;9.752;2023-09-12T01:19:50;100468.22;;;20.49;100.00
72560;BME280;62987;52.382;9.752;2023-09-12T01:22:33;100473.03;;;20.46;100.00
72560;BME280;62987;52.382;9.752;2023-09-12T01:25:16;100476.00;;;20.43;100.00
72560;BME280;62987;52.382;9.752;2023-09-12T01:27:55;100473.81;;;20.37;100.00
72560;BME280;62987;52.382;9.752;2023-09-12T01:30:25;100472.59;;;20.29;100.00
72560;BME280;62987;52.382;9.752;2023-09-12T01:32:56;100469.31;;;20.26;100.00
72560;BME280;62987;52.382;9.752;2023-09-12T01:35:24;100476.38;;;20.17;100.00
72560;BME280;62987;52.382;9.752;2023-09-12T01:37:53;100487.50;;;20.24;100.00
72560;BME280;62987;52.382;9.752;2023-09-12T01:40:27;100492.91;;;20.24;100.00
72560;BME280;62987;52.382;9.752;2023-09-12T01:43:02;100502.84;;;20.23;100.00
72560;BME280;62987;52.382;9.752;2023-09-12T01:45:31;100502.72;;;20.25;100.00
72560;BME280;62987;52.382;9.752;2023-09-12T01:48:03;100494.50;;;20.26;100.00
72560;BME280;62987;52.382;9.752;2023-09-12T01:50:32;100496.34;;;20.26;100.00
72560;BME280;62987;52.382;9.752;2023-09-12T01:53:01;100501.63;;;20.27;100.00
72560;BME280;62987;52.382;9.752;2023-09-12T01:55:30;100486.91;;;20.20;100.00
72560;BME280;62987;52.382;9.752;2023-09-12T01:57:59;100511.28;;;20.30;100.00
72560;BME280;62987;52.382;9.752;2023-09-12T02:00:29;100495.94;;;20.30;100.00
72560;BME280;62987;52.382;9.752;2023-09-12T02:02:57;100499.63;;;20.29;100.00
72560;BME280;62987;52.382;9.752;2023-09-12T02:05:27;100499.16;;;20.24;100.00
72560;BME280;62987;52.382;9.752;2023-09-12T02:07:56;100507.56;;;20.21;100.00
72560;BME280;62987;52.382;9.752;2023-09-12T02:10:26;100509.06;;;20.14;100.00
72560;BME280;62987;52.382;9.752;2023-09-12T02:12:55;100515.16;;;20.16;100.00
72560;BME280;62987;52.382;9.752;2023-09-12T02:15:23;100518.59;;;20.18;100.00
72560;BME280;62987;52.382;9.752;2023-09-12T02:17:53;100520.56;;;20.16;100.00
72560;BME280;62987;52.382;9.752;2023-09-12T02:20:21;100522.81;;;20.11;100.00
72560;BME280;62987;52.382;9.752;2023-09-12T02:22:50;100540.72;;;20.12;100.00
72560;BME280;62987;52.382;9.752;2023-09-12T02:25:18;100533.59;;;20.11;100.00
72560;BME280;62987;52.382;9.752;2023-09-12T02:27:48;100541.00;;;20.09;100.00
72560;BME280;62987;52.382;9.752;2023-09-12T02:30:16;100541.97;;;20.08;100.00
72560;BME280;62987;52.382;9.752;2023-09-12T02:32:44;100548.38;;;20.07;100.00
72560;BME280;62987;52.382;9.752;2023-09-12T02:35:14;100547.41;;;19.97;100.00
72560;BME280;62987;52.382;9.752;2023-09-12T02:37:43;100559.69;;;20.01;100.00
72560;BME280;62987;52.382;9.752;2023-09-12T02:40:11;100566.00;;;20.11;100.00
72560;BME280;62987;52.382;9.752;2023-09-12T02:42:41;100572.63;;;20.18;100.00
72560;BME280;62987;52.382;9.752;2023-09-12T02:45:09;100575.44;;;20.17;100.00
72560;BME280;62987;52.382;9.752;2023-09-12T02:47:38;100559.75;;;20.11;100.00
72560;BME280;62987;52.382;9.752;2023-09-12T02:50:07;100572.63;;;20.18;100.00
72560;BME280;62987;52.382;9.752;2023-09-12T02:52:37;100579.69;;;20.30;100.00
72560;BME280;62987;52.382;9.752;2023-09-12T02:55:06;100574.41;;;20.29;100.00
72560;BME280;62987;52.382;9.752;2023-09-12T02:57:35;100558.72;;;20.23;100.00
72560;BME280;62987;52.382;9.752;2023-09-12T03:00:04;100561.91;;;20.28;100.00
72560;BME280;62987;52.382;9.752;2023-09-12T03:02:35;100556.00;;;20.23;100.00
72560;BME280;62987;52.382;9.752;2023-09-12T03:05:04;100558.34;;;20.27;100.00
72560;BME280;62987;52.382;9.752;2023-09-12T03:07:32;100541.94;;;20.19;100.00
72560;BME280;62987;52.382;9.752;2023-09-12T03:10:02;100539.97;;;20.21;100.00
72560;BME280;62987;52.382;9.752;2023-09-12T03:12:31;100508.84;;;20.06;100.00
72560;BME280;62987;52.382;9.752;2023-09-12T03:15:00;100514.31;;;20.16;100.00
72560;BME280;62987;52.382;9.752;2023-09-12T03:17:29;100523.66;;;20.12;100.00
72560;BME280;62987;52.382;9.752;2023-09-12T03:19:57;100527.16;;;20.03;100.00
72560;BME280;62987;52.382;9.752;2023-09-12T03:22:27;100537.09;;;20.02;100.00
72560;BME280;62987;52.382;9.752;2023-09-12T03:24:55;100541.75;;;20.00;100.00
72560;BME280;62987;52.382;9.752;2023-09-12T03:27:25;100545.44;;;19.99;100.00
72560;BME280;62987;52.382;9.752;2023-09-12T03:29:53;100544.34;;;19.90;100.00
72560;BME280;62987;52.382;9.752;2023-09-12T03:32:22;100555.31;;;19.89;100.00
72560;BME280;62987;52.382;9.752;2023-09-12T03:34:50;100560.38;;;19.82;100.00
72560;BME280;62987;52.382;9.752;2023-09-12T03:37:19;100569.16;;;19.84;100.00
72560;BME280;62987;52.382;9.752;2023-09-12T03:39:49;100587.72;;;19.89;100.00
72560;BME280;62987;52.382;9.752;2023-09-12T03:42:17;100610.75;;;19.93;100.00
72560;BME280;62987;52.382;9.752;2023-09-12T03:44:47;100636.50;;;19.97;100.00
72560;BME280;62987;52.382;9.752;2023-09-12T03:47:15;100642.66;;;19.99;100.00
72560;BME280;62987;52.382;9.752;2023-09-12T03:49:43;100632.59;;;20.01;100.00
72560;BME280;62987;52.382;9.752;2023-09-12T03:52:12;100637.72;;;20.04;100.00
72560;BME280;62987;52.382;9.752;2023-09-12T03:54:40;100618.22;;;20.01;100.00
72560;BME280;62987;52.382;9.752;2023-09-12T03:57:09;100625.94;;;20.05;100.00
72560;BME280;62987;52.382;9.752;2023-09-12T03:59:37;100631.47;;;20.04;100.00
72560;BME280;62987;52.382;9.752;2023-09-12T04:02:08;100624.22;;;20.04;100.00
72560;BME280;62987;52.382;9.752;2023-09-12T04:04:36;100621.28;;;20.07;100.00
72560;BME280;62987;52.382;9.752;2023-09-12T04:07:05;100622.84;;;20.10;100.00
72560;BME280;62987;52.382;9.752;2023-09-12T04:09:34;100650.72;;;20.10;100.00
72560;BME280;62987;52.382;9.752;2023-09-12T04:12:03;100645.31;;;20.10;100.00
72560;BME280;62987;52.382;9.752;2023-09-12T04:14:33;100609.91;;;19.92;100.00
72560;BME280;62987;52.382;9.752;2023-09-12T04:17:02;100594.25;;;19.64;100.00
72560;BME280;62987;52.382;9.752;2023-09-12T04:19:36;100599.78;;;19.51;100.00
72560;BME280;62987;52.382;9.752;2023-09-12T04:22:04;100558.34;;;19.30;100.00
72560;BME280;62987;52.382;9.752;2023-09-12T04:24:33;100539.22;;;19.22;100.00
72560;BME280;62987;52.382;9.752;2023-09-12T04:27:01;100548.16;;;19.23;100.00
72560;BME280;62987;52.382;9.752;2023-09-12T04:29:32;100538.09;;;19.13;100.00
72560;BME280;62987;52.382;9.752;2023-09-12T04:32:03;100559.81;;;19.12;100.00
72560;BME280;62987;52.382;9.752;2023-09-12T04:34:33;100548.66;;;19.05;100.00
72560;BME280;62987;52.382;9.752;2023-09-12T04:37:03;100564.69;;;19.07;100.00
72560;BME280;62987;52.382;9.752;2023-09-12T04:39:33;100544.59;;;19.00;100.00
72560;BME280;62987;52.382;9.752;2023-09-12T04:42:02;100537.00;;;18.94;100.00
72560;BME280;62987;52.382;9.752;2023-09-12T04:44:34;100548.53;;;18.96;100.00
72560;BME280;62987;52.382;9.752;2023-09-12T04:47:03;100534.78;;;18.88;100.00
72560;BME280;62987;52.382;9.752;2023-09-12T04:49:32;100538.34;;;18.88;100.00
72560;BME280;62987;52.382;9.752;2023-09-12T04:52:00;100542.97;;;18.86;100.00
72560;BME280;62987;52.382;9.752;2023-09-12T04:54:31;100531.59;;;18.83;100.00
72560;BME280;62987;52.382;9.752;2023-09-12T04:57:00;100529.03;;;18.81;100.00
72560;BME280;62987;52.382;9.752;2023-09-12T04:59:28;100530.16;;;18.79;100.00
72560;BME280;62987;52.382;9.752;2023-09-12T05:01:56;100522.91;;;18.79;100.00
72560;BME280;62987;52.382;9.752;2023-09-12T05:04:25;100521.53;;;18.73;100.00
72560;BME280;62987;52.382;9.752;2023-09-12T05:06:53;100520.22;;;18.79;100.00
72560;BME280;62987;52.382;9.752;2023-09-12T05:09:22;100538.94;;;18.81;100.00
72560;BME280;62987;52.382;9.752;2023-09-12T05:11:51;100528.66;;;18.74;100.00
72560;BME280;62987;52.382;9.752;2023-09-12T05:14:20;100559.16;;;18.86;100.00
72560;BME280;62987;52.382;9.752;2023-09-12T05:16:49;100575.00;;;18.91;100.00
72560;BME280;62987;52.382;9.752;2023-09-12T05:19:17;100583.06;;;18.91;100.00
72560;BME280;62987;52.382;9.752;2023-09-12T05:21:46;100594.84;;;19.01;100.00
72560;BME280;62987;52.382;9.752;2023-09-12T05:24:14;100603.91;;;19.00;100.00
72560;BME280;62987;52.382;9.752;2023-09-12T05:26:43;100581.72;;;18.96;100.00
72560;BME280;62987;52.382;9.752;2023-09-12T05:29:13;100624.66;;;19.10;100.00
72560;BME280;62987;52.382;9.752;2023-09-12T05:31:41;100629.19;;;19.10;100.00
72560;BME280;62987;52.382;9.752;2023-09-12T05:34:10;100639.84;;;19.11;100.00
72560;BME280;62987;52.382;9.752;2023-09-12T05:36:39;100625.72;;;19.19;100.00
72560;BME280;62987;52.382;9.752;2023-09-12T05:39:09;100625.88;;;19.29;100.00
72560;BME280;62987;52.382;9.752;2023-09-12T05:41:40;100632.47;;;19.13;100.00
72560;BME280;62987;52.382;9.752;2023-09-12T05:44:09;100657.25;;;19.18;100.00
72560;BME280;62987;52.382;9.752;2023-09-12T05:46:41;100652.44;;;19.00;100.00
72560;BME280;62987;52.382;9.752;2023-09-12T05:49:09;100663.09;;;19.01;100.00
72560;BME280;62987;52.382;9.752;2023-09-12T05:51:38;100673.50;;;18.95;100.00
72560;BME280;62987;52.382;9.752;2023-09-12T05:54:07;100654.72;;;18.82;100.00
72560;BME280;62987;52.382;9.752;2023-09-12T05:56:36;100668.53;;;18.54;100.00
72560;BME280;62987;52.382;9.752;2023-09-12T05:59:05;100667.28;;;18.23;100.00
72560;BME280;62987;52.382;9.752;2023-09-12T06:01:33;100687.25;;;17.71;100.00
72560;BME280;62987;52.382;9.752;2023-09-12T06:04:03;100708.88;;;17.57;100.00
72560;BME280;62987;52.382;9.752;2023-09-12T06:06:32;100698.00;;;17.58;100.00
72560;BME280;62987;52.382;9.752;2023-09-12T06:09:01;100676.38;;;17.85;100.00
72560;BME280;62987;52.382;9.752;2023-09-12T06:11:29;100683.78;;;21.30;100.00
72560;BME280;62987;52.382;9.752;2023-09-12T06:13:58;100648.66;;;19.02;100.00
72560;BME280;62987;52.382;9.752;2023-09-12T06:16:26;100612.03;;;19.11;100.00
72560;BME280;62987;52.382;9.752;2023-09-12T06:18:55;100654.81;;;18.69;100.00
72560;BME280;62987;52.382;9.752;2023-09-12T06:21:24;100658.53;;;18.32;100.00
72560;BME280;62987;52.382;9.752;2023-09-12T06:24:08;100659.50;;;18.31;100.00
72560;BME280;62987;52.382;9.752;2023-09-12T06:26:37;100665.56;;;18.22;100.00
72560;BME280;62987;52.382;9.752;2023-09-12T06:29:06;100653.09;;;18.21;100.00
72560;BME280;62987;52.382;9.752;2023-09-12T06:31:35;100636.50;;;18.27;100.00
72560;BME280;62987;52.382;9.752;2023-09-12T06:34:04;100623.41;;;18.10;100.00
72560;BME280;62987;52.382;9.752;2023-09-12T06:36:33;100631.72;;;18.07;100.00
72560;BME280;62987;52.382;9.752;2023-09-12T06:39:02;100625.38;;;18.08;100.00
72560;BME280;62987;52.382;9.752;2023-09-12T06:41:32;100607.97;;;18.01;100.00
72560;BME280;62987;52.382;9.752;2023-09-12T06:44:01;100615.06;;;18.02;100.00
72560;BME280;62987;52.382;9.752;2023-09-12T06:46:32;100623.56;;;17.95;100.00
72560;BME280;62987;52.382;9.752;2023-09-12T06:49:03;100616.09;;;18.12;100.00
72560;BME280;62987;52.382;9.752;2023-09-12T06:51:31;100606.59;;;18.19;100.00
72560;BME280;62987;52.382;9.752;2023-09-12T06:54:06;100606.34;;;18.22;100.00
72560;BME280;62987;52.382;9.752;2023-09-12T06:56:34;100598.50;;;18.19;100.00
72560;BME280;62987;52.382;9.752;2023-09-12T06:59:05;100585.03;;;18.19;100.00
72560;BME280;62987;52.382;9.752;2023-09-12T07:01:33;100565.22;;;18.20;100.00
72560;BME280;62987;52.382;9.752;2023-09-12T07:04:02;100557.31;;;18.06;100.00
72560;BME280;62987;52.382;9.752;2023-09-12T07:06:31;100550.47;;;18.02;100.00
72560;BME280;62987;52.382;9.752;2023-09-12T07:09:00;100547.50;;;17.93;100.00
72560;BME280;62987;52.382;9.752;2023-09-12T07:11:31;100547.16;;;18.09;100.00
72560;BME280;62987;52.382;9.752;2023-09-12T07:14:00;100563.63;;;18.17;100.00
72560;BME280;62987;52.382;9.752;2023-09-12T07:16:35;100546.25;;;18.21;100.00
72560;BME280;62987;52.382;9.752;2023-09-12T07:19:04;100537.19;;;18.22;100.00
72560;BME280;62987;52.382;9.752;2023-09-12T07:21:33;100539.19;;;18.31;100.00
72560;BME280;62987;52.382;9.752;2023-09-12T07:24:04;100512.88;;;18.35;100.00
72560;BME280;62987;52.382;9.752;2023-09-12T07:26:35;100518.03;;;18.38;100.00
72560;BME280;62987;52.382;9.752;2023-09-12T07:29:03;100507.63;;;18.45;100.00
72560;BME280;62987;52.382;9.752;2023-09-12T07:31:32;100483.41;;;18.45;100.00
72560;BME280;62987;52.382;9.752;2023-09-12T07:34:01;100506.50;;;18.60;100.00
72560;BME280;62987;52.382;9.752;2023-09-12T07:36:35;100503.53;;;18.63;100.00
72560;BME280;62987;52.382;9.752;2023-09-12T07:39:03;100532.84;;;18.79;100.00
72560;BME280;62987;52.382;9.752;2023-09-12T07:41:32;100582.09;;;18.92;100.00
72560;BME280;62987;52.382;9.752;2023-09-12T07:44:02;100594.13;;;19.10;100.00
72560;BME280;62987;52.382;9.752;2023-09-12T07:46:31;100585.53;;;19.16;100.00
72560;BME280;62987;52.382;9.752;2023-09-12T07:49:02;100591.91;;;19.15;100.00
72560;BME280;62987;52.382;9.752;2023-09-12T07:51:35;100599.78;;;19.29;100.00
72560;BME280;62987;52.382;9.752;2023-09-12T07:54:03;100568.38;;;19.39;100.00
72560;BME280;62987;52.382;9.752;2023-09-12T07:56:58;100575.88;;;19.47;100.00
72560;BME280;62987;52.382;9.752;2023-09-12T07:59:38;100574.50;;;19.41;100.00
72560;BME280;62987;52.382;9.752;2023-09-12T08:02:14;100570.72;;;19.44;100.00
72560;BME280;62987;52.382;9.752;2023-09-12T08:04:43;100580.41;;;19.46;100.00
72560;BME280;62987;52.382;9.752;2023-09-12T08:07:15;100525.00;;;18.98;100.00
72560;BME280;62987;52.382;9.752;2023-09-12T08:09:48;100605.16;;;19.29;100.00
72560;BME280;62987;52.382;9.752;2023-09-12T08:12:18;100625.16;;;19.38;100.00
72560;BME280;62987;52.382;9.752;2023-09-12T08:14:50;100648.56;;;19.37;100.00
72560;BME280;62987;52.382;9.752;2023-09-12T08:17:18;100681.72;;;19.50;100.00
72560;BME280;62987;52.382;9.752;2023-09-12T08:19:50;100663.53;;;19.41;100.00
72560;BME280;62987;52.382;9.752;2023-09-12T08:22:19;100698.88;;;19.61;100.00
72560;BME280;62987;52.382;9.752;2023-09-12T08:24:47;100696.19;;;19.61;100.00
72560;BME280;62987;52.382;9.752;2023-09-12T08:27:15;100675.41;;;19.39;100.00
72560;BME280;62987;52.382;9.752;2023-09-12T08:29:44;100712.59;;;19.58;100.00
72560;BME280;62987;52.382;9.752;2023-09-12T08:32:16;100735.59;;;19.63;100.00
72560;BME280;62987;52.382;9.752;2023-09-12T08:34:45;100738.88;;;19.67;100.00
72560;BME280;62987;52.382;9.752;2023-09-12T08:37:13;100735.91;;;19.59;100.00
72560;BME280;62987;52.382;9.752;2023-09-12T08:39:43;100723.78;;;19.64;100.00
72560;BME280;62987;52.382;9.752;2023-09-12T08:42:13;100731.03;;;19.75;100.00
72560;BME280;62987;52.382;9.752;2023-09-12T08:44:42;100724.16;;;19.71;100.00
72560;BME280;62987;52.382;9.752;2023-09-12T08:47:11;100732.28;;;19.82;100.00
72560;BME280;62987;52.382;9.752;2023-09-12T08:49:41;100726.13;;;19.91;100.00
72560;BME280;62987;52.382;9.752;2023-09-12T08:52:12;100720.22;;;19.97;100.00
72560;BME280;62987;52.382;9.752;2023-09-12T08:54:50;100731.63;;;20.12;100.00
72560;BME280;62987;52.382;9.752;2023-09-12T08:57:41;100691.78;;;19.82;100.00
72560;BME280;62987;52.382;9.752;2023-09-12T09:00:11;100729.31;;;20.07;100.00
72560;BME280;62987;52.382;9.752;2023-09-12T09:02:45;100722.94;;;20.08;100.00
72560;BME280;62987;52.382;9.752;2023-09-12T09:05:16;100745.75;;;20.15;100.00
72560;BME280;62987;52.382;9.752;2023-09-12T09:07:49;100751.41;;;20.12;100.00
72560;BME280;62987;52.382;9.752;2023-09-12T09:10:22;100757.28;;;20.17;100.00
72560;BME280;62987;52.382;9.752;2023-09-12T09:13:08;100749.06;;;20.08;100.00
72560;BME280;62987;52.382;9.752;2023-09-12T09:15:38;100752.63;;;19.97;100.00
72560;BME280;62987;52.382;9.752;2023-09-12T09:18:12;100759.97;;;19.84;100.00
72560;BME280;62987;52.382;9.752;2023-09-12T09:20:42;100756.78;;;19.57;100.00
72560;BME280;62987;52.382;9.752;2023-09-12T09:23:12;100759.13;;;19.50;100.00
72560;BME280;62987;52.382;9.752;2023-09-12T09:25:42;100758.69;;;19.43;100.00
72560;BME280;62987;52.382;9.752;2023-09-12T09:28:19;100770.34;;;19.44;100.00
72560;BME280;62987;52.382;9.752;2023-09-12T09:30:49;100799.66;;;19.37;100.00
72560;BME280;62987;52.382;9.752;2023-09-12T09:33:21;100809.56;;;19.37;100.00
72560;BME280;62987;52.382;9.752;2023-09-12T09:36:02;100751.28;;;19.12;100.00
72560;BME280;62987;52.382;9.752;2023-09-12T09:38:31;100744.16;;;19.11;100.00
72560;BME280;62987;52.382;9.752;2023-09-12T09:41:00;100785.81;;;18.59;100.00
72560;BME280;62987;52.382;9.752;2023-09-12T09:43:32;100793.91;;;18.47;100.00
72560;BME280;62987;52.382;9.752;2023-09-12T09:46:00;100755.34;;;18.46;100.00
72560;BME280;62987;52.382;9.752;2023-09-12T09:48:29;100715.09;;;18.32;100.00
72560;BME280;62987;52.382;9.752;2023-09-12T09:51:03;100753.25;;;18.26;100.00
72560;BME280;62987;52.382;9.752;2023-09-12T09:53:35;100753.81;;;18.42;100.00
72560;BME280;62987;52.382;9.752;2023-09-12T09:56:08;100759.34;;;18.41;100.00
72560;BME280;62987;52.382;9.752;2023-09-12T09:58:45;100768.00;;;18.33;100.00
72560;BME280;62987;52.382;9.752;2023-09-12T10:01:18;100778.34;;;18.26;100.00
72560;BME280;62987;52.382;9.752;2023-09-12T10:03:47;100730.41;;;18.31;100.00
72560;BME280;62987;52.382;9.752;2023-09-12T10:06:18;100744.25;;;18.38;100.00
72560;BME280;62987;52.382;9.752;2023-09-12T10:08:58;100753.66;;;18.32;100.00
72560;BME280;62987;52.382;9.752;2023-09-12T10:11:30;100748.91;;;18.36;100.00
72560;BME280;62987;52.382;9.752;2023-09-12T10:14:07;100733.13;;;18.19;100.00
72560;BME280;62987;52.382;9.752;2023-09-12T10:16:44;100750.88;;;18.34;100.00
72560;BME280;62987;52.382;9.752;2023-09-12T10:19:15;100718.09;;;18.40;100.00
72560;BME280;62987;52.382;9.752;2023-09-12T10:21:49;100756.47;;;18.55;100.00
72560;BME280;62987;52.382;9.752;2023-09-12T10:24:25;100750.34;;;18.53;100.00
72560;BME280;62987;52.382;9.752;2023-09-12T10:26:55;100719.22;;;18.49;100.00
72560;BME280;62987;52.382;9.752;2023-09-12T10:29:25;100745.81;;;18.66;100.00
72560;BME280;62987;52.382;9.752;2023-09-12T10:31:53;100727.75;;;18.43;100.00
72560;BME280;62987;52.382;9.752;2023-09-12T10:34:24;100698.94;;;18.32;100.00
72560;BME280;62987;52.382;9.752;2023-09-12T10:36:55;100729.09;;;18.61;100.00
72560;BME280;62987;52.382;9.752;2023-09-12T10:39:26;100712.81;;;18.62;100.00
72560;BME280;62987;52.382;9.752;2023-09-12T10:41:57;100711.34;;;18.58;100.00
72560;BME280;62987;52.382;9.752;2023-09-12T10:44:26;100685.91;;;18.50;100.00
72560;BME280;62987;52.382;9.752;2023-09-12T10:46:57;100700.56;;;18.58;100.00
72560;BME280;62987;52.382;9.752;2023-09-12T10:49:27;100715.41;;;18.64;100.00
72560;BME280;62987;52.382;9.752;2023-09-12T10:51:57;100741.03;;;18.69;100.00
72560;BME280;62987;52.382;9.752;2023-09-12T10:54:36;100727.63;;;18.57;100.00
72560;BME280;62987;52.382;9.752;2023-09-12T10:57:08;100713.94;;;18.60;100.00
72560;BME280;62987;52.382;9.752;2023-09-12T11:00:10;100706.41;;;18.52;100.00
72560;BME280;62987;52.382;9.752;2023-09-12T11:02:39;100732.91;;;18.58;100.00
72560;BME280;62987;52.382;9.752;2023-09-12T11:05:36;100726.81;;;18.67;100.00
72560;BME280;62987;52.382;9.752;2023-09-12T11:08:05;100698.31;;;18.76;100.00
72560;BME280;62987;52.382;9.752;2023-09-12T11:10:34;100700.19;;;18.87;100.00
72560;BME280;62987;52.382;9.752;2023-09-12T11:13:03;100724.59;;;18.85;100.00
72560;BME280;62987;52.382;9.752;2023-09-12T11:15:35;100747.22;;;18.83;100.00
72560;BME280;62987;52.382;9.752;2023-09-12T11:18:06;100779.81;;;18.80;100.00
72560;BME280;62987;52.382;9.752;2023-09-12T11:20:52;100775.84;;;18.72;100.00
72560;BME280;62987;52.382;9.752;2023-09-12T11:23:22;100768.22;;;18.66;100.00
72560;BME280;62987;52.382;9.752;2023-09-12T11:26:03;100790.50;;;18.68;100.00
72560;BME280;62987;52.382;9.752;2023-09-12T11:28:33;100771.50;;;18.46;100.00
72560;BME280;62987;52.382;9.752;2023-09-12T11:31:02;100761.19;;;18.40;100.00
72560;BME280;62987;52.382;9.752;2023-09-12T11:33:32;100781.00;;;18.39;100.00
72560;BME280;62987;52.382;9.752;2023-09-12T11:36:01;100803.00;;;18.33;100.00
72560;BME280;62987;52.382;9.752;2023-09-12T11:38:34;100787.59;;;18.22;100.00
72560;BME280;62987;52.382;9.752;2023-09-12T11:41:02;100792.88;;;18.24;100.00
72560;BME280;62987;52.382;9.752;2023-09-12T11:43:30;100801.66;;;18.15;100.00
72560;BME280;62987;52.382;9.752;2023-09-12T11:46:01;100786.84;;;18.33;100.00
72560;BME280;62987;52.382;9.752;2023-09-12T11:48:33;100787.28;;;18.27;100.00
72560;BME280;62987;52.382;9.752;2023-09-12T11:51:07;100786.47;;;18.14;100.00
72560;BME280;62987;52.382;9.752;2023-09-12T11:53:36;100800.56;;;18.05;100.00
72560;BME280;62987;52.382;9.752;2023-09-12T11:56:05;100787.78;;;19.16;100.00
72560;BME280;62987;52.382;9.752;2023-09-12T11:58:35;100761.13;;;18.53;100.00
72560;BME280;62987;52.382;9.752;2023-09-12T12:01:04;100751.66;;;18.60;100.00
72560;BME280;62987;52.382;9.752;2023-09-12T12:03:33;100714.59;;;18.27;100.00
72560;BME280;62987;52.382;9.752;2023-09-12T12:06:02;100710.28;;;18.24;100.00
72560;BME280;62987;52.382;9.752;2023-09-12T12:08:31;100674.91;;;18.05;100.00
72560;BME280;62987;52.382;9.752;2023-09-12T12:11:01;100656.69;;;18.09;100.00
72560;BME280;62987;52.382;9.752;2023-09-12T12:13:29;100676.84;;;18.03;100.00
72560;BME280;62987;52.382;9.752;2023-09-12T12:15:57;100685.88;;;18.15;100.00
72560;BME280;62987;52.382;9.752;2023-09-12T12:18:26;100680.59;;;18.13;100.00
72560;BME280;62987;52.382;9.752;2023-09-12T12:20:54;100673.38;;;18.14;100.00
72560;BME280;62987;52.382;9.752;2023-09-12T12:23:23;100672.41;;;18.15;100.00
72560;BME280;62987;52.382;9.752;2023-09-12T12:25:51;100657.78;;;18.30;100.00
72560;BME280;62987;52.382;9.752;2023-09-12T12:28:21;100666.63;;;18.32;100.00
72560;BME280;62987;52.382;9.752;2023-09-12T12:30:52;100655.19;;;18.28;100.00
72560;BME280;62987;52.382;9.752;2023-09-12T12:33:22;100650.00;;;18.38;100.00
72560;BME280;62987;52.382;9.752;2023-09-12T12:36:10;100647.97;;;18.29;100.00
72560;BME280;62987;52.382;9.752;2023-09-12T12:38:39;100642.88;;;18.37;100.00
72560;BME280;62987;52.382;9.752;2023-09-12T12:41:23;100646.56;;;18.36;100.00
72560;BME280;62987;52.382;9.752;2023-09-12T12:44:01;100637.03;;;18.43;100.00
72560;BME280;62987;52.382;9.752;2023-09-12T12:46:30;100624.81;;;18.50;100.00
72560;BME280;62987;52.382;9.752;2023-09-12T12:48:59;100622.13;;;18.50;100.00
72560;BME280;62987;52.382;9.752;2023-09-12T12:51:27;100635.66;;;18.61;100.00
72560;BME280;62987;52.382;9.752;2023-09-12T12:54:04;100618.22;;;18.54;100.00
72560;BME280;62987;52.382;9.752;2023-09-12T12:56:33;100625.81;;;18.73;100.00